sensor_id;sensor_type;location;lat;lon;timestamp;P1;durP1;ratioP1;P2;durP2;ratioP2
3155;SDS011;1588;50.892;7.082;2023-11-21T00:00:03;13.70;;;5.70;;
3155;SDS011;1588;50.892;7.082;2023-11-21T00:05:13;12.90;;;5.10;;
3155;SDS011;1588;50.892;7.082;2023-11-21T00:10:16;11.70;;;6.03;;
3155;SDS011;1588;50.892;7.082;2023-11-21T00:15:18;10.50;;;4.93;;
3155;SDS011;1588;50.892;7.082;2023-11-21T00:20:23;16.90;;;6.10;;
3155;SDS011;1588;50.892;7.082;2023-11-21T00:25:26;11.80;;;4.50;;
3155;SDS011;1588;50.892;7.082;2023-11-21T00:30:29;14.47;;;6.30;;
3155;SDS011;1588;50.892;7.082;2023-11-21T00:35:33;17.17;;;6.57;;
3155;SDS011;1588;50.892;7.082;2023-11-21T00:40:35;17.80;;;5.80;;
3155;SDS011;1588;50.892;7.082;2023-11-21T00:45:38;18.53;;;7.40;;
3155;SDS011;1588;50.892;7.082;2023-11-21T00:50:43;24.63;;;7.63;;
3155;SDS011;1588;50.892;7.082;2023-11-21T00:55:45;41.83;;;8.50;;
3155;SDS011;1588;50.892;7.082;2023-11-21T01:00:48;20.40;;;6.80;;
3155;SDS011;1588;50.892;7.082;2023-11-21T01:05:52;15.27;;;6.90;;
3155;SDS011;1588;50.892;7.082;2023-11-21T01:10:54;17.80;;;6.80;;
3155;SDS011;1588;50.892;7.082;2023-11-21T01:15:57;15.17;;;7.50;;
3155;SDS011;1588;50.892;7.082;2023-11-21T01:21:01;15.13;;;7.20;;
3155;SDS011;1588;50.892;7.082;2023-11-21T01:26:03;20.40;;;7.87;;
3155;SDS011;1588;50.892;7.082;2023-11-21T01:31:06;20.13;;;7.90;;
3155;SDS011;1588;50.892;7.082;2023-11-21T01:36:10;15.37;;;7.43;;
3155;SDS011;1588;50.892;7.082;2023-11-21T01:41:12;18.23;;;7.13;;
3155;SDS011;1588;50.892;7.082;2023-11-21T01:46:15;21.93;;;7.13;;
3155;SDS011;1588;50.892;7.082;2023-11-21T01:51:19;17.63;;;7.40;;
3155;SDS011;1588;50.892;7.082;2023-11-21T01:56:22;16.93;;;7.27;;
3155;SDS011;1588;50.892;7.082;2023-11-21T02:01:26;29.27;;;7.70;;
3155;SDS011;1588;50.892;7.082;2023-11-21T02:06:30;20.60;;;7.97;;
3155;SDS011;1588;50.892;7.082;2023-11-21T02:11:32;18.23;;;7.33;;
3155;SDS011;1588;50.892;7.082;2023-11-21T02:16:35;16.50;;;8.10;;
3155;SDS011;1588;50.892;7.082;2023-11-21T02:21:39;21.83;;;7.63;;
3155;SDS011;1588;50.892;7.082;2023-11-21T02:26:43;21.70;;;8.10;;
3155;SDS011;1588;50.892;7.082;2023-11-21T02:31:46;26.47;;;7.70;;
3155;SDS011;1588;50.892;7.082;2023-11-21T02:36:49;16.23;;;8.53;;
3155;SDS011;1588;50.892;7.082;2023-11-21T02:41:53;19.90;;;8.17;;
3155;SDS011;1588;50.892;7.082;2023-11-21T02:46:55;18.40;;;8.40;;
3155;SDS011;1588;50.892;7.082;2023-11-21T02:51:58;18.20;;;8.20;;
3155;SDS011;1588;50.892;7.082;2023-11-21T02:57:03;19.40;;;7.67;;
3155;SDS011;1588;50.892;7.082;2023-11-21T03:02:06;26.40;;;7.43;;
3155;SDS011;1588;50.892;7.082;2023-11-21T03:07:09;23.80;;;8.30;;
3155;SDS011;1588;50.892;7.082;2023-11-21T03:12:13;16.13;;;7.87;;
3155;SDS011;1588;50.892;7.082;2023-11-21T03:17:16;18.23;;;7.60;;
3155;SDS011;1588;50.892;7.082;2023-11-21T03:22:19;15.23;;;8.10;;
3155;SDS011;1588;50.892;7.082;2023-11-21T03:27:23;23.80;;;8.93;;
3155;SDS011;1588;50.892;7.082;2023-11-21T03:32:25;23.13;;;8.30;;
3155;SDS011;1588;50.892;7.082;2023-11-21T03:37:27;19.73;;;8.53;;
3155;SDS011;1588;50.892;7.082;2023-11-21T03:42:31;23.30;;;9.30;;
3155;SDS011;1588;50.892;7.082;2023-11-21T03:47:33;24.07;;;10.10;;
3155;SDS011;1588;50.892;7.082;2023-11-21T03:52:35;21.73;;;8.40;;
3155;SDS011;1588;50.892;7.082;2023-11-21T03:57:40;13.47;;;7.30;;
3155;SDS011;1588;50.892;7.082;2023-11-21T04:02:42;23.53;;;8.10;;
3155;SDS011;1588;50.892;7.082;2023-11-21T04:07:44;31.30;;;9.43;;
3155;SDS011;1588;50.892;7.082;2023-11-21T04:12:48;35.90;;;10.03;;
3155;SDS011;1588;50.892;7.082;2023-11-21T04:17:50;21.53;;;8.63;;
3155;SDS011;1588;50.892;7.082;2023-11-21T04:22:53;28.93;;;9.77;;
3155;SDS011;1588;50.892;7.082;2023-11-21T04:27:56;35.63;;;10.00;;
3155;SDS011;1588;50.892;7.082;2023-11-21T04:32:58;21.13;;;9.33;;
3155;SDS011;1588;50.892;7.082;2023-11-21T04:38:01;22.97;;;10.10;;
3155;SDS011;1588;50.892;7.082;2023-11-21T04:43:04;24.90;;;10.00;;
3155;SDS011;1588;50.892;7.082;2023-11-21T04:48:07;24.73;;;9.60;;
3155;SDS011;1588;50.892;7.082;2023-11-21T04:53:10;26.63;;;8.53;;
3155;SDS011;1588;50.892;7.082;2023-11-21T04:58:16;20.93;;;9.43;;
3155;SDS011;1588;50.892;7.082;2023-11-21T05:03:19;22.00;;;8.47;;
3155;SDS011;1588;50.892;7.082;2023-11-21T05:08:24;23.33;;;8.73;;
3155;SDS011;1588;50.892;7.082;2023-11-21T05:13:31;22.50;;;8.93;;
3155;SDS011;1588;50.892;7.082;2023-11-21T05:18:35;21.60;;;8.60;;
3155;SDS011;1588;50.892;7.082;2023-11-21T05:23:37;20.67;;;8.90;;
3155;SDS011;1588;50.892;7.082;2023-11-21T05:28:41;23.93;;;10.00;;
3155;SDS011;1588;50.892;7.082;2023-11-21T05:33:44;25.40;;;9.67;;
3155;SDS011;1588;50.892;7.082;2023-11-21T05:38:47;23.13;;;9.93;;
3155;SDS011;1588;50.892;7.082;2023-11-21T05:43:50;20.37;;;9.30;;
3155;SDS011;1588;50.892;7.082;2023-11-21T05:48:54;28.97;;;8.80;;
3155;SDS011;1588;50.892;7.082;2023-11-21T05:53:57;21.90;;;9.23;;
3155;SDS011;1588;50.892;7.082;2023-11-21T05:59:00;32.70;;;11.70;;
3155;SDS011;1588;50.892;7.082;2023-11-21T06:04:04;20.80;;;10.00;;
3155;SDS011;1588;50.892;7.082;2023-11-21T06:09:08;22.03;;;9.73;;
3155;SDS011;1588;50.892;7.082;2023-11-21T06:14:13;32.60;;;10.00;;
3155;SDS011;1588;50.892;7.082;2023-11-21T06:19:18;33.20;;;10.27;;
3155;SDS011;1588;50.892;7.082;2023-11-21T06:24:20;31.80;;;9.77;;
3155;SDS011;1588;50.892;7.082;2023-11-21T06:29:25;28.97;;;10.77;;
3155;SDS011;1588;50.892;7.082;2023-11-21T06:34:27;30.10;;;10.20;;
3155;SDS011;1588;50.892;7.082;2023-11-21T06:39:30;36.03;;;9.87;;
3155;SDS011;1588;50.892;7.082;2023-11-21T06:44:34;29.60;;;10.63;;
3155;SDS011;1588;50.892;7.082;2023-11-21T06:49:38;38.40;;;11.43;;
3155;SDS011;1588;50.892;7.082;2023-11-21T06:54:41;31.77;;;11.07;;
3155;SDS011;1588;50.892;7.082;2023-11-21T06:59:45;24.40;;;11.27;;
3155;SDS011;1588;50.892;7.082;2023-11-21T07:04:47;21.83;;;9.97;;
3155;SDS011;1588;50.892;7.082;2023-11-21T07:09:49;29.07;;;12.10;;
3155;SDS011;1588;50.892;7.082;2023-11-21T07:14:53;30.97;;;11.50;;
3155;SDS011;1588;50.892;7.082;2023-11-21T07:19:56;41.77;;;11.90;;
3155;SDS011;1588;50.892;7.082;2023-11-21T07:24:58;46.73;;;12.30;;
3155;SDS011;1588;50.892;7.082;2023-11-21T07:30:02;31.33;;;11.37;;
3155;SDS011;1588;50.892;7.082;2023-11-21T07:35:06;51.90;;;12.33;;
3155;SDS011;1588;50.892;7.082;2023-11-21T07:40:10;33.00;;;12.07;;
3155;SDS011;1588;50.892;7.082;2023-11-21T07:45:14;41.63;;;13.50;;
3155;SDS011;1588;50.892;7.082;2023-11-21T07:50:17;31.63;;;11.97;;
3155;SDS011;1588;50.892;7.082;2023-11-21T07:55:20;32.80;;;13.40;;
3155;SDS011;1588;50.892;7.082;2023-11-21T08:00:24;42.97;;;12.10;;
3155;SDS011;1588;50.892;7.082;2023-11-21T08:05:30;42.07;;;13.17;;
3155;SDS011;1588;50.892;7.082;2023-11-21T08:10:33;40.10;;;13.20;;
3155;SDS011;1588;50.892;7.082;2023-11-21T08:15:37;49.87;;;14.07;;
3155;SDS011;1588;50.892;7.082;2023-11-21T08:20:39;59.40;;;16.50;;
3155;SDS011;1588;50.892;7.082;2023-11-21T08:25:42;63.73;;;17.30;;
3155;SDS011;1588;50.892;7.082;2023-11-21T08:30:46;51.30;;;16.20;;
3155;SDS011;1588;50.892;7.082;2023-11-21T08:35:49;47.83;;;15.80;;
3155;SDS011;1588;50.892;7.082;2023-11-21T08:40:52;39.77;;;14.53;;
3155;SDS011;1588;50.892;7.082;2023-11-21T08:45:56;45.47;;;14.83;;
3155;SDS011;1588;50.892;7.082;2023-11-21T08:50:59;42.63;;;15.43;;
3155;SDS011;1588;50.892;7.082;2023-11-21T08:56:01;50.33;;;15.57;;
3155;SDS011;1588;50.892;7.082;2023-11-21T09:01:06;42.50;;;16.17;;
3155;SDS011;1588;50.892;7.082;2023-11-21T09:06:09;47.67;;;15.33;;
3155;SDS011;1588;50.892;7.082;2023-11-21T09:11:11;55.03;;;16.70;;
3155;SDS011;1588;50.892;7.082;2023-11-21T09:16:15;45.27;;;16.60;;
3155;SDS011;1588;50.892;7.082;2023-11-21T09:21:18;65.87;;;19.00;;
3155;SDS011;1588;50.892;7.082;2023-11-21T09:26:20;50.70;;;16.73;;
3155;SDS011;1588;50.892;7.082;2023-11-21T09:31:24;54.13;;;16.57;;
3155;SDS011;1588;50.892;7.082;2023-11-21T09:36:31;46.63;;;16.57;;
3155;SDS011;1588;50.892;7.082;2023-11-21T09:41:34;53.87;;;16.93;;
3155;SDS011;1588;50.892;7.082;2023-11-21T09:46:49;42.20;;;16.07;;
3155;SDS011;1588;50.892;7.082;2023-11-21T09:51:55;59.20;;;18.80;;
3155;SDS011;1588;50.892;7.082;2023-11-21T09:56:57;60.70;;;18.07;;
3155;SDS011;1588;50.892;7.082;2023-11-21T10:02:03;59.73;;;17.67;;
3155;SDS011;1588;50.892;7.082;2023-11-21T10:07:09;56.30;;;18.23;;
3155;SDS011;1588;50.892;7.082;2023-11-21T10:12:12;60.87;;;17.70;;
3155;SDS011;1588;50.892;7.082;2023-11-21T10:17:18;50.63;;;17.40;;
3155;SDS011;1588;50.892;7.082;2023-11-21T10:22:26;50.83;;;18.10;;
3155;SDS011;1588;50.892;7.082;2023-11-21T10:27:29;54.90;;;17.63;;
3155;SDS011;1588;50.892;7.082;2023-11-21T10:32:33;76.70;;;18.67;;
3155;SDS011;1588;50.892;7.082;2023-11-21T10:37:35;61.33;;;18.40;;
3155;SDS011;1588;50.892;7.082;2023-11-21T10:42:40;70.03;;;18.07;;
3155;SDS011;1588;50.892;7.082;2023-11-21T10:47:45;60.07;;;18.83;;
3155;SDS011;1588;50.892;7.082;2023-11-21T10:52:47;55.90;;;18.23;;
3155;SDS011;1588;50.892;7.082;2023-11-21T10:57:52;59.53;;;17.93;;
3155;SDS011;1588;50.892;7.082;2023-11-21T11:02:57;51.37;;;16.93;;
3155;SDS011;1588;50.892;7.082;2023-11-21T11:08:02;55.57;;;18.17;;
3155;SDS011;1588;50.892;7.082;2023-11-21T11:13:06;59.40;;;18.63;;
3155;SDS011;1588;50.892;7.082;2023-11-21T11:18:10;69.80;;;18.50;;
3155;SDS011;1588;50.892;7.082;2023-11-21T11:23:20;64.83;;;19.73;;
3155;SDS011;1588;50.892;7.082;2023-11-21T11:28:38;55.47;;;19.60;;
3155;SDS011;1588;50.892;7.082;2023-11-21T11:33:51;59.93;;;18.70;;
3155;SDS011;1588;50.892;7.082;2023-11-21T11:38:59;71.27;;;20.93;;
3155;SDS011;1588;50.892;7.082;2023-11-21T11:44:08;56.93;;;20.40;;
3155;SDS011;1588;50.892;7.082;2023-11-21T11:49:58;70.63;;;20.83;;
3155;SDS011;1588;50.892;7.082;2023-11-21T11:55:08;68.43;;;22.70;;
3155;SDS011;1588;50.892;7.082;2023-11-21T12:00:12;71.03;;;21.73;;
3155;SDS011;1588;50.892;7.082;2023-11-21T12:05:21;64.50;;;21.70;;
3155;SDS011;1588;50.892;7.082;2023-11-21T12:10:28;64.80;;;19.70;;
3155;SDS011;1588;50.892;7.082;2023-11-21T12:15:31;73.53;;;22.90;;
3155;SDS011;1588;50.892;7.082;2023-11-21T12:20:35;61.50;;;18.97;;
3155;SDS011;1588;50.892;7.082;2023-11-21T12:25:39;63.40;;;19.00;;
3155;SDS011;1588;50.892;7.082;2023-11-21T12:30:42;62.97;;;17.27;;
3155;SDS011;1588;50.892;7.082;2023-11-21T12:35:47;62.83;;;20.43;;
3155;SDS011;1588;50.892;7.082;2023-11-21T12:40:49;54.80;;;18.93;;
3155;SDS011;1588;50.892;7.082;2023-11-21T12:46:11;57.90;;;19.80;;
3155;SDS011;1588;50.892;7.082;2023-11-21T12:51:18;70.30;;;19.27;;
3155;SDS011;1588;50.892;7.082;2023-11-21T12:56:24;57.60;;;18.90;;
3155;SDS011;1588;50.892;7.082;2023-11-21T13:01:27;44.73;;;15.50;;
3155;SDS011;1588;50.892;7.082;2023-11-21T13:06:32;56.17;;;16.43;;
3155;SDS011;1588;50.892;7.082;2023-11-21T13:11:39;85.03;;;24.77;;
3155;SDS011;1588;50.892;7.082;2023-11-21T13:16:42;47.03;;;14.80;;
3155;SDS011;1588;50.892;7.082;2023-11-21T13:21:48;51.40;;;15.57;;
3155;SDS011;1588;50.892;7.082;2023-11-21T13:26:50;53.93;;;16.90;;
3155;SDS011;1588;50.892;7.082;2023-11-21T13:31:53;40.73;;;14.33;;
3155;SDS011;1588;50.892;7.082;2023-11-21T13:36:57;48.40;;;15.03;;
3155;SDS011;1588;50.892;7.082;2023-11-21T13:42:01;49.70;;;15.50;;
3155;SDS011;1588;50.892;7.082;2023-11-21T13:47:06;50.53;;;14.00;;
3155;SDS011;1588;50.892;7.082;2023-11-21T13:52:10;40.50;;;14.33;;
3155;SDS011;1588;50.892;7.082;2023-11-21T13:57:17;50.00;;;16.23;;
3155;SDS011;1588;50.892;7.082;2023-11-21T14:02:20;41.63;;;13.80;;
3155;SDS011;1588;50.892;7.082;2023-11-21T14:07:34;42.87;;;14.60;;
3155;SDS011;1588;50.892;7.082;2023-11-21T14:12:37;47.77;;;15.70;;
3155;SDS011;1588;50.892;7.082;2023-11-21T14:17:43;50.03;;;13.87;;
3155;SDS011;1588;50.892;7.082;2023-11-21T14:22:47;43.83;;;13.80;;
3155;SDS011;1588;50.892;7.082;2023-11-21T14:27:49;49.27;;;14.40;;
3155;SDS011;1588;50.892;7.082;2023-11-21T14:32:52;50.73;;;15.10;;
3155;SDS011;1588;50.892;7.082;2023-11-21T14:37:57;55.10;;;16.13;;
3155;SDS011;1588;50.892;7.082;2023-11-21T14:43:08;39.63;;;15.17;;
3155;SDS011;1588;50.892;7.082;2023-11-21T14:48:11;43.97;;;15.33;;
3155;SDS011;1588;50.892;7.082;2023-11-21T14:53:39;48.50;;;14.10;;
3155;SDS011;1588;50.892;7.082;2023-11-21T14:59:13;41.50;;;13.50;;
3155;SDS011;1588;50.892;7.082;2023-11-21T15:04:21;65.50;;;15.20;;
3155;SDS011;1588;50.892;7.082;2023-11-21T15:09:39;70.03;;;17.07;;
3155;SDS011;1588;50.892;7.082;2023-11-21T15:14:58;58.73;;;18.90;;
3155;SDS011;1588;50.892;7.082;2023-11-21T15:20:14;51.90;;;16.70;;
3155;SDS011;1588;50.892;7.082;2023-11-21T15:25:23;66.90;;;19.50;;
3155;SDS011;1588;50.892;7.082;2023-11-21T15:30:26;66.20;;;18.30;;
3155;SDS011;1588;50.892;7.082;2023-11-21T15:35:32;58.83;;;16.63;;
3155;SDS011;1588;50.892;7.082;2023-11-21T15:40:39;65.80;;;16.73;;
3155;SDS011;1588;50.892;7.082;2023-11-21T15:45:46;61.20;;;19.57;;
3155;SDS011;1588;50.892;7.082;2023-11-21T15:50:48;56.57;;;17.80;;
3155;SDS011;1588;50.892;7.082;2023-11-21T15:55:54;56.23;;;18.70;;
3155;SDS011;1588;50.892;7.082;2023-11-21T16:00:56;60.47;;;19.70;;
3155;SDS011;1588;50.892;7.082;2023-11-21T16:05:58;67.57;;;21.67;;
3155;SDS011;1588;50.892;7.082;2023-11-21T16:11:02;59.90;;;18.17;;
3155;SDS011;1588;50.892;7.082;2023-11-21T16:16:05;69.10;;;18.47;;
3155;SDS011;1588;50.892;7.082;2023-11-21T16:21:10;49.30;;;16.10;;
3155;SDS011;1588;50.892;7.082;2023-11-21T16:26:16;54.00;;;16.47;;
3155;SDS011;1588;50.892;7.082;2023-11-21T16:31:21;46.70;;;14.60;;
3155;SDS011;1588;50.892;7.082;2023-11-21T16:36:24;44.53;;;13.27;;
3155;SDS011;1588;50.892;7.082;2023-11-21T16:41:28;37.37;;;11.93;;
3155;SDS011;1588;50.892;7.082;2023-11-21T16:46:34;39.30;;;12.60;;
3155;SDS011;1588;50.892;7.082;2023-11-21T16:51:57;33.10;;;12.60;;
3155;SDS011;1588;50.892;7.082;2023-11-21T16:57:15;38.30;;;12.60;;
3155;SDS011;1588;50.892;7.082;2023-11-21T17:02:18;25.80;;;9.57;;
3155;SDS011;1588;50.892;7.082;2023-11-21T17:07:21;28.90;;;10.67;;
3155;SDS011;1588;50.892;7.082;2023-11-21T17:12:35;34.03;;;10.53;;
3155;SDS011;1588;50.892;7.082;2023-11-21T17:17:38;30.07;;;11.17;;
3155;SDS011;1588;50.892;7.082;2023-11-21T17:22:40;23.53;;;10.17;;
3155;SDS011;1588;50.892;7.082;2023-11-21T17:27:44;29.80;;;11.63;;
3155;SDS011;1588;50.892;7.082;2023-11-21T17:32:46;26.60;;;10.90;;
3155;SDS011;1588;50.892;7.082;2023-11-21T17:37:49;23.80;;;10.30;;
3155;SDS011;1588;50.892;7.082;2023-11-21T17:42:53;22.70;;;10.67;;
3155;SDS011;1588;50.892;7.082;2023-11-21T17:47:58;26.57;;;10.60;;
3155;SDS011;1588;50.892;7.082;2023-11-21T17:53:01;19.43;;;7.50;;
3155;SDS011;1588;50.892;7.082;2023-11-21T17:58:06;18.87;;;7.67;;
3155;SDS011;1588;50.892;7.082;2023-11-21T18:03:09;15.37;;;7.43;;
3155;SDS011;1588;50.892;7.082;2023-11-21T18:08:12;16.00;;;7.30;;
3155;SDS011;1588;50.892;7.082;2023-11-21T18:13:16;13.93;;;5.83;;
3155;SDS011;1588;50.892;7.082;2023-11-21T18:18:21;13.10;;;6.33;;
3155;SDS011;1588;50.892;7.082;2023-11-21T18:23:23;14.70;;;6.80;;
3155;SDS011;1588;50.892;7.082;2023-11-21T18:28:27;16.20;;;7.13;;
3155;SDS011;1588;50.892;7.082;2023-11-21T18:33:30;14.43;;;6.73;;
3155;SDS011;1588;50.892;7.082;2023-11-21T18:38:34;12.80;;;6.70;;
3155;SDS011;1588;50.892;7.082;2023-11-21T18:43:40;11.00;;;5.10;;
3155;SDS011;1588;50.892;7.082;2023-11-21T18:48:42;16.63;;;4.33;;
3155;SDS011;1588;50.892;7.082;2023-11-21T18:53:48;6.00;;;3.43;;
3155;SDS011;1588;50.892;7.082;2023-11-21T18:58:54;7.13;;;3.63;;
3155;SDS011;1588;50.892;7.082;2023-11-21T19:03:56;5.17;;;3.00;;
3155;SDS011;1588;50.892;7.082;2023-11-21T19:08:59;5.63;;;3.80;;
3155;SDS011;1588;50.892;7.082;2023-11-21T19:14:03;8.00;;;4.13;;
3155;SDS011;1588;50.892;7.082;2023-11-21T19:19:09;6.50;;;3.67;;
3155;SDS011;1588;50.892;7.082;2023-11-21T19:24:12;8.93;;;4.13;;
3155;SDS011;1588;50.892;7.082;2023-11-21T19:29:16;6.80;;;3.90;;
3155;SDS011;1588;50.892;7.082;2023-11-21T19:34:18;11.00;;;4.60;;
3155;SDS011;1588;50.892;7.082;2023-11-21T19:39:21;6.73;;;4.30;;
3155;SDS011;1588;50.892;7.082;2023-11-21T19:44:25;6.27;;;4.17;;
3155;SDS011;1588;50.892;7.082;2023-11-21T19:49:28;7.83;;;4.07;;
3155;SDS011;1588;50.892;7.082;2023-11-21T19:54:30;7.37;;;4.17;;
3155;SDS011;1588;50.892;7.082;2023-11-21T19:59:34;10.27;;;5.07;;
3155;SDS011;1588;50.892;7.082;2023-11-21T20:04:40;8.10;;;4.50;;
3155;SDS011;1588;50.892;7.082;2023-11-21T20:09:43;7.43;;;4.33;;
3155;SDS011;1588;50.892;7.082;2023-11-21T20:14:47;8.27;;;4.67;;
3155;SDS011;1588;50.892;7.082;2023-11-21T20:19:49;7.37;;;4.40;;
3155;SDS011;1588;50.892;7.082;2023-11-21T20:24:52;9.57;;;5.07;;
3155;SDS011;1588;50.892;7.082;2023-11-21T20:29:55;11.53;;;4.87;;
3155;SDS011;1588;50.892;7.082;2023-11-21T20:35:00;10.33;;;6.10;;
3155;SDS011;1588;50.892;7.082;2023-11-21T20:40:03;13.90;;;6.67;;
3155;SDS011;1588;50.892;7.082;2023-11-21T20:45:09;9.97;;;5.30;;
3155;SDS011;1588;50.892;7.082;2023-11-21T20:50:14;10.63;;;6.50;;
3155;SDS011;1588;50.892;7.082;2023-11-21T20:55:18;14.50;;;6.50;;
3155;SDS011;1588;50.892;7.082;2023-11-21T21:00:22;11.03;;;5.80;;
3155;SDS011;1588;50.892;7.082;2023-11-21T21:05:26;11.00;;;5.70;;
3155;SDS011;1588;50.892;7.082;2023-11-21T21:10:28;15.00;;;6.93;;
3155;SDS011;1588;50.892;7.082;2023-11-21T21:15:32;10.87;;;5.87;;
3155;SDS011;1588;50.892;7.082;2023-11-21T21:20:38;10.50;;;5.57;;
3155;SDS011;1588;50.892;7.082;2023-11-21T21:25:41;9.63;;;6.00;;
3155;SDS011;1588;50.892;7.082;2023-11-21T21:30:45;13.27;;;6.80;;
3155;SDS011;1588;50.892;7.082;2023-11-21T21:35:50;10.67;;;5.40;;
3155;SDS011;1588;50.892;7.082;2023-11-21T21:40:53;9.00;;;5.70;;
3155;SDS011;1588;50.892;7.082;2023-11-21T21:45:57;8.23;;;5.13;;
3155;SDS011;1588;50.892;7.082;2023-11-21T21:50:59;7.93;;;4.53;;
3155;SDS011;1588;50.892;7.082;2023-11-21T21:56:01;8.83;;;4.73;;
3155;SDS011;1588;50.892;7.082;2023-11-21T22:01:05;8.43;;;5.13;;
3155;SDS011;1588;50.892;7.082;2023-11-21T22:06:09;10.00;;;5.70;;
3155;SDS011;1588;50.892;7.082;2023-11-21T22:11:12;8.27;;;5.07;;
3155;SDS011;1588;50.892;7.082;2023-11-21T22:16:16;11.30;;;5.20;;
3155;SDS011;1588;50.892;7.082;2023-11-21T22:21:20;11.43;;;5.17;;
3155;SDS011;1588;50.892;7.082;2023-11-21T22:26:24;11.70;;;6.20;;
3155;SDS011;1588;50.892;7.082;2023-11-21T22:31:28;15.43;;;6.80;;
3155;SDS011;1588;50.892;7.082;2023-11-21T22:36:31;18.60;;;8.50;;
3155;SDS011;1588;50.892;7.082;2023-11-21T22:41:33;14.30;;;7.13;;
3155;SDS011;1588;50.892;7.082;2023-11-21T22:46:41;19.27;;;8.80;;
3155;SDS011;1588;50.892;7.082;2023-11-21T22:51:44;17.83;;;7.00;;
3155;SDS011;1588;50.892;7.082;2023-11-21T22:56:48;14.93;;;8.20;;
3155;SDS011;1588;50.892;7.082;2023-11-21T23:01:53;17.73;;;8.27;;
3155;SDS011;1588;50.892;7.082;2023-11-21T23:06:55;19.03;;;11.57;;
3155;SDS011;1588;50.892;7.082;2023-11-21T23:11:58;13.80;;;7.13;;
3155;SDS011;1588;50.892;7.082;2023-11-21T23:17:01;16.70;;;7.87;;
3155;SDS011;1588;50.892;7.082;2023-11-21T23:22:05;16.97;;;7.23;;
3155;SDS011;1588;50.892;7.082;2023-11-21T23:27:09;15.00;;;7.27;;
3155;SDS011;1588;50.892;7.082;2023-11-21T23:32:20;14.70;;;7.27;;
3155;SDS011;1588;50.892;7.082;2023-11-21T23:37:23;16.53;;;7.60;;
3155;SDS011;1588;50.892;7.082;2023-11-21T23:42:25;14.20;;;7.23;;
3155;SDS011;1588;50.892;7.082;2023-11-21T23:47:29;17.40;;;7.50;;
3155;SDS011;1588;50.892;7.082;2023-11-21T23:52:31;14.50;;;7.60;;
3155;SDS011;1588;50.892;7.082;2023-11-21T23:57:34;14.60;;;7.30;;
